Airfield :
LOGIN :

Register | Disclaimer

   EN    FR    IT 

 










Legend :    VFR   Marginal VFR   IFR   Intensive IFR   Very Intensive IFR
Visi :
Ceiling :
>= 8 km
>= 3000ft
5 to 8 km
1000 to 3000 ft
1500m to 5 km
500 to 1000 ft
800 to 1500m
200 to 500 ft
< 800m
< 200 ft
Symbols :   Thunderstorms  Fog  Heavy snow  Heavy precipitations  Wind > 20 kt
SIGMETs :     Misc.  Thunderstorms  Icing  Turbulence  Mountain Waves  Volcanic Ashes






- Airport Elevation : 1465 ft


LSMP - Payerne

CURRENT METAR :
  • 192150Z AUTO 20004KT 150V250 9999NDV -SHRA FEW100 BKN120 BKN170 23/20 Q1013 RMK

EXPIRED METARs :
  • 192120Z AUTO 20003KT 160V240 9999NDV FEW097 BKN120 BKN160 23/20 Q1013 RMK
  • 192050Z AUTO 20004KT 170V230 9999NDV FEW150 23/20 Q1013 RMK
  • 192020Z AUTO 21004KT 170V240 9999NDV NCD 23/20 Q1013 RMK
  • 191950Z AUTO 33002KT 9999NDV NCD 24/20 Q1012 RMK
  • 191920Z AUTO VRB02KT 9999NDV NCD 26/20 Q1012 RMK

Expired Forecast.



MET'MAP, your aeronautical weather chart ! - Copyright ORBIFLY December 2007 - Disclaimer

ORBIFLY MET'MAP TEAM :

Programming & Development : Alexandra Zaïnal
Concept & original design : Baudouin d'Aumeries
Assistance for programming : Marc-Olivier Méhu
Technical & hardware support : Manuel Goepfert

Contact : metmap@orbifly.com




SOURCES & CREDITS :

   NOAA